Time;durP1;ratioP1;P1;durP2;ratioP2;P2;SDS_P1;SDS_P2;PMS_P1;PMS_P2;Temp;Humidity;BMP_temperature;BMP_pressure;BME280_temperature;BME280_humidity;BME280_pressure;Samples;Min_cycle;Max_cycle;Signal;HPM_P1;HPM_P2
2022/09/01 00:00:51;;;;;;;2.83;1.10;;;;;;;;;;5084061;28;20510;-66
2022/09/01 00:03:18;;;;;;;3.47;1.40;;;;;;;;;;5087329;28;20024;-66
2022/09/01 00:05:45;;;;;;;4.33;1.30;;;;;;;;;;5087651;28;20062;-66
2022/09/01 00:08:10;;;;;;;6.80;1.30;;;;;;;;;;5087563;28;20032;-66
2022/09/01 00:10:36;;;;;;;4.47;1.20;;;;;;;;;;5086635;28;20541;-67
2022/09/01 00:13:03;;;;;;;3.83;1.37;;;;;;;;;;5081723;28;20032;-66
2022/09/01 00:15:28;;;;;;;2.53;1.20;;;;;;;;;;5085821;28;20048;-66
2022/09/01 00:17:53;;;;;;;3.57;1.40;;;;;;;;;;5085349;28;20058;-66
2022/09/01 00:20:18;;;;;;;5.57;1.20;;;;;;;;;;5082315;28;20048;-66
2022/09/01 00:22:44;;;;;;;3.00;1.30;;;;;;;;;;5086093;28;20059;-66
2022/09/01 00:25:09;;;;;;;2.53;1.27;;;;;;;;;;5087228;28;20032;-67
2022/09/01 00:27:35;;;;;;;4.03;1.20;;;;;;;;;;5085990;28;20437;-67
2022/09/01 00:30:00;;;;;;;2.20;1.20;;;;;;;;;;5086110;28;20028;-66
2022/09/01 00:32:27;;;;;;;1.97;1.10;;;;;;;;;;5084936;28;20404;-66
2022/09/01 00:34:52;;;;;;;5.80;1.30;;;;;;;;;;5087650;28;20048;-66
2022/09/01 00:37:17;;;;;;;3.30;1.20;;;;;;;;;;5085679;28;20066;-67
2022/09/01 00:39:42;;;;;;;6.90;1.97;;;;;;;;;;5083052;28;20027;-67
2022/09/01 00:42:08;;;;;;;2.53;1.30;;;;;;;;;;5087812;28;21924;-67
2022/09/01 00:44:35;;;;;;;3.77;1.40;;;;;;;;;;5091352;28;20488;-67
2022/09/01 00:47:00;;;;;;;6.90;1.40;;;;;;;;;;5091249;28;20024;-67
2022/09/01 00:49:32;;;;;;;3.50;1.30;;;;;;;;;;5088875;28;20365;-66
2022/09/01 00:52:03;;;;;;;9.75;1.88;;;;;;;;;;5088506;28;20490;-66
2022/09/01 00:54:34;;;;;;;5.95;1.77;;;;;;;;;;5089109;28;20116;-66
2022/09/01 00:57:01;;;;;;;3.40;1.50;;;;;;;;;;5087607;28;20024;-66
2022/09/01 00:59:26;;;;;;;3.93;1.40;;;;;;;;;;5090180;28;20028;-66
2022/09/01 01:01:52;;;;;;;3.30;1.50;;;;;;;;;;5085960;28;20034;-66
2022/09/01 01:04:17;;;;;;;3.80;1.70;;;;;;;;;;5086536;28;20118;-66
2022/09/01 01:06:48;;;;;;;2.80;1.57;;;;;;;;;;5092351;28;20450;-66
2022/09/01 01:09:14;;;;;;;5.27;1.57;;;;;;;;;;5091543;28;20031;-66
2022/09/01 01:11:39;;;;;;;8.57;1.50;;;;;;;;;;5091199;28;20036;-66
2022/09/01 01:14:10;;;;;;;4.53;1.70;;;;;;;;;;5092890;28;20046;-66
2022/09/01 01:16:36;;;;;;;2.50;1.40;;;;;;;;;;5085755;28;20032;-66
2022/09/01 01:19:02;;;;;;;2.43;1.33;;;;;;;;;;5091326;28;20077;-66
2022/09/01 01:24:18;;;;;;;3.30;1.37;;;;;;;;;;5089559;28;20388;-66
2022/09/01 01:26:43;;;;;;;4.72;1.60;;;;;;;;;;5091004;28;20468;-66
2022/09/01 01:29:09;;;;;;;8.90;1.60;;;;;;;;;;5088820;28;20152;-66
2022/09/01 01:31:34;;;;;;;2.60;1.50;;;;;;;;;;5090931;28;20456;-66
2022/09/01 01:34:00;;;;;;;3.67;1.40;;;;;;;;;;5089446;28;20016;-66
2022/09/01 01:36:35;;;;;;;3.80;1.60;;;;;;;;;;5090684;28;20012;-66
2022/09/01 01:39:03;;;;;;;3.90;1.70;;;;;;;;;;5090850;28;20440;-66
2022/09/01 01:41:29;;;;;;;4.00;1.60;;;;;;;;;;5090672;28;20048;-66
2022/09/01 01:43:58;;;;;;;3.33;1.60;;;;;;;;;;5085938;28;20138;-66
2022/09/01 01:46:24;;;;;;;3.47;1.70;;;;;;;;;;5088891;28;20111;-66
2022/09/01 01:48:51;;;;;;;3.97;1.80;;;;;;;;;;5091799;28;20023;-66
2022/09/01 01:51:20;;;;;;;3.53;1.50;;;;;;;;;;5087834;28;20079;-66
2022/09/01 01:53:46;;;;;;;5.03;1.80;;;;;;;;;;5087849;28;20036;-67
2022/09/01 01:56:11;;;;;;;3.40;1.90;;;;;;;;;;5089724;28;20024;-67
2022/09/01 01:58:39;;;;;;;4.17;1.80;;;;;;;;;;5087007;28;20032;-66
2022/09/01 02:01:05;;;;;;;3.67;1.77;;;;;;;;;;5090552;28;20020;-66
2022/09/01 02:03:37;;;;;;;3.93;1.60;;;;;;;;;;5088754;28;20057;-67
2022/09/01 02:06:05;;;;;;;4.25;1.67;;;;;;;;;;5089449;28;20032;-66
2022/09/01 02:08:34;;;;;;;3.60;1.50;;;;;;;;;;5087378;28;20051;-66
2022/09/01 02:10:59;;;;;;;5.03;1.50;;;;;;;;;;5089824;28;20016;-66
2022/09/01 02:13:29;;;;;;;3.33;1.60;;;;;;;;;;5083422;28;20753;-66
2022/09/01 02:15:55;;;;;;;5.63;1.80;;;;;;;;;;5087605;28;20020;-66
2022/09/01 02:18:26;;;;;;;3.90;1.60;;;;;;;;;;5089421;28;20459;-66
2022/09/01 02:20:52;;;;;;;5.60;1.60;;;;;;;;;;5088179;28;20023;-66
2022/09/01 02:23:22;;;;;;;4.63;1.87;;;;;;;;;;5091206;28;20389;-66
2022/09/01 02:25:48;;;;;;;8.13;2.33;;;;;;;;;;5088764;28;20388;-66
2022/09/01 02:28:15;;;;;;;7.17;1.80;;;;;;;;;;5088490;28;20047;-66
2022/09/01 02:30:41;;;;;;;6.90;1.70;;;;;;;;;;5088015;28;20039;-66
2022/09/01 02:33:08;;;;;;;3.50;1.77;;;;;;;;;;5088003;28;20028;-66
2022/09/01 02:35:36;;;;;;;4.43;1.70;;;;;;;;;;5087962;28;20016;-66
2022/09/01 02:38:05;;;;;;;3.50;1.80;;;;;;;;;;5090304;28;20012;-66
2022/09/01 02:40:31;;;;;;;8.30;2.00;;;;;;;;;;5083833;28;20040;-66
2022/09/01 02:42:58;;;;;;;3.20;1.90;;;;;;;;;;5088845;28;20016;-66
2022/09/01 02:45:24;;;;;;;4.70;2.10;;;;;;;;;;5087421;28;20050;-66
2022/09/01 02:47:52;;;;;;;4.50;1.80;;;;;;;;;;5089077;28;20016;-66
2022/09/01 02:50:18;;;;;;;3.40;1.87;;;;;;;;;;5087778;28;21183;-66
2022/09/01 02:52:51;;;;;;;4.63;1.87;;;;;;;;;;5085728;28;20034;-66
2022/09/01 02:55:19;;;;;;;5.40;1.90;;;;;;;;;;5088674;28;20019;-66
2022/09/01 02:57:47;;;;;;;3.40;2.20;;;;;;;;;;5089047;28;20028;-66
2022/09/01 03:00:21;;;;;;;5.87;2.30;;;;;;;;;;5087496;28;20016;-66
2022/09/01 03:02:50;;;;;;;4.20;2.03;;;;;;;;;;5084716;28;20502;-66
2022/09/01 03:05:15;;;;;;;3.33;2.07;;;;;;;;;;5088531;28;20028;-66
2022/09/01 03:07:41;;;;;;;4.10;2.30;;;;;;;;;;5086431;28;20032;-66
2022/09/01 03:10:08;;;;;;;4.40;2.30;;;;;;;;;;5089211;28;20024;-66
2022/09/01 03:12:33;;;;;;;5.20;2.43;;;;;;;;;;5091560;28;20020;-66
2022/09/01 03:14:59;;;;;;;4.77;2.37;;;;;;;;;;5087301;28;20769;-66
2022/09/01 03:17:24;;;;;;;5.83;2.23;;;;;;;;;;5086475;28;20021;-66
2022/09/01 03:19:50;;;;;;;7.03;2.40;;;;;;;;;;5088640;28;20410;-66
2022/09/01 03:22:15;;;;;;;6.90;2.50;;;;;;;;;;5085492;28;20046;-66
2022/09/01 03:24:41;;;;;;;5.67;2.33;;;;;;;;;;5085635;28;20016;-66
2022/09/01 03:27:07;;;;;;;5.63;2.37;;;;;;;;;;5090684;28;20528;-66
2022/09/01 03:29:32;;;;;;;4.47;2.30;;;;;;;;;;5085738;28;20035;-66
2022/09/01 03:31:58;;;;;;;5.90;2.37;;;;;;;;;;5088840;28;20032;-66
2022/09/01 03:34:23;;;;;;;7.80;2.57;;;;;;;;;;5085179;28;20023;-66
2022/09/01 03:36:49;;;;;;;7.40;2.30;;;;;;;;;;5087618;28;20017;-66
2022/09/01 03:39:16;;;;;;;5.00;2.00;;;;;;;;;;5085610;28;20577;-66
2022/09/01 03:41:42;;;;;;;8.07;2.50;;;;;;;;;;5086820;28;20372;-66
2022/09/01 03:44:10;;;;;;;4.80;2.47;;;;;;;;;;5086320;28;20020;-66
2022/09/01 03:46:36;;;;;;;3.53;2.13;;;;;;;;;;5084725;28;20039;-66
2022/09/01 03:49:05;;;;;;;3.87;2.17;;;;;;;;;;5084195;28;20085;-66
2022/09/01 03:51:31;;;;;;;4.60;2.47;;;;;;;;;;5085192;28;20475;-66
2022/09/01 03:53:57;;;;;;;5.77;2.20;;;;;;;;;;5084851;28;20016;-66
2022/09/01 03:56:24;;;;;;;5.57;2.07;;;;;;;;;;5087126;28;20103;-66
2022/09/01 03:58:51;;;;;;;5.13;2.37;;;;;;;;;;5083038;28;20024;-66
2022/09/01 04:01:17;;;;;;;3.90;2.27;;;;;;;;;;5086272;28;20077;-66
2022/09/01 04:03:45;;;;;;;6.17;3.10;;;;;;;;;;5084560;28;20032;-66
2022/09/01 04:06:12;;;;;;;6.13;2.63;;;;;;;;;;5086056;28;20066;-66
2022/09/01 04:08:38;;;;;;;5.40;2.80;;;;;;;;;;5083749;28;20056;-66
2022/09/01 04:11:09;;;;;;;11.43;2.80;;;;;;;;;;5086897;28;20051;-66
2022/09/01 04:13:36;;;;;;;15.23;3.42;;;;;;;;;;5083350;28;20073;-66
2022/09/01 04:16:01;;;;;;;8.67;2.80;;;;;;;;;;5084994;28;20052;-66
2022/09/01 04:18:28;;;;;;;10.93;2.77;;;;;;;;;;5081760;28;20116;-66
2022/09/01 04:20:57;;;;;;;5.30;2.77;;;;;;;;;;5084833;28;20060;-66
2022/09/01 04:23:28;;;;;;;6.00;3.10;;;;;;;;;;5085973;28;20028;-66
2022/09/01 04:25:55;;;;;;;12.20;3.20;;;;;;;;;;5085469;28;20027;-66
2022/09/01 04:28:24;;;;;;;27.00;4.20;;;;;;;;;;5080263;28;20035;-66
2022/09/01 04:30:52;;;;;;;10.07;3.00;;;;;;;;;;5085728;28;20020;-66
2022/09/01 04:33:17;;;;;;;10.47;3.20;;;;;;;;;;5087820;28;20024;-66
2022/09/01 04:35:43;;;;;;;9.27;3.20;;;;;;;;;;5084690;28;20023;-66
2022/09/01 04:38:08;;;;;;;8.10;2.90;;;;;;;;;;5083678;28;20035;-66
2022/09/01 04:40:40;;;;;;;9.53;2.90;;;;;;;;;;5084707;28;20032;-66
2022/09/01 04:43:06;;;;;;;9.83;3.23;;;;;;;;;;5083184;28;20032;-66
2022/09/01 04:45:35;;;;;;;6.23;3.60;;;;;;;;;;5085106;28;20135;-66
2022/09/01 04:48:01;;;;;;;5.60;2.87;;;;;;;;;;5082349;28;20103;-66
2022/09/01 04:50:29;;;;;;;6.90;2.90;;;;;;;;;;5086236;28;20035;-66
2022/09/01 04:52:57;;;;;;;10.33;2.80;;;;;;;;;;5086943;28;20024;-66
2022/09/01 04:55:25;;;;;;;6.03;2.70;;;;;;;;;;5083504;28;20044;-66
2022/09/01 04:57:51;;;;;;;5.43;2.80;;;;;;;;;;5080994;28;20028;-66
2022/09/01 05:00:30;;;;;;;7.67;3.20;;;;;;;;;;5083739;28;20052;-66
2022/09/01 05:03:03;;;;;;;4.53;2.50;;;;;;;;;;5079174;28;20031;-66
2022/09/01 05:05:29;;;;;;;5.20;2.50;;;;;;;;;;5084925;28;20054;-66
2022/09/01 05:07:54;;;;;;;6.13;2.40;;;;;;;;;;5084429;28;20045;-66
2022/09/01 05:10:21;;;;;;;5.80;2.50;;;;;;;;;;5083242;28;20024;-66
2022/09/01 05:12:46;;;;;;;4.63;2.37;;;;;;;;;;5086823;28;20025;-66
2022/09/01 05:15:12;;;;;;;4.43;2.07;;;;;;;;;;5085750;28;20078;-66
2022/09/01 05:17:38;;;;;;;8.60;2.40;;;;;;;;;;5086564;28;20026;-66
2022/09/01 05:20:04;;;;;;;4.90;2.50;;;;;;;;;;5088715;28;20016;-66
2022/09/01 05:22:30;;;;;;;5.57;2.30;;;;;;;;;;5086272;28;20054;-66
2022/09/01 05:24:58;;;;;;;7.73;2.50;;;;;;;;;;5077276;28;20103;-66
2022/09/01 05:27:24;;;;;;;10.17;2.97;;;;;;;;;;5083427;28;20641;-66
2022/09/01 05:29:49;;;;;;;4.93;2.47;;;;;;;;;;5086691;28;20024;-66
2022/09/01 05:32:15;;;;;;;7.73;2.73;;;;;;;;;;5087374;28;20024;-66
2022/09/01 05:34:42;;;;;;;3.70;2.27;;;;;;;;;;5062765;28;20029;-66
2022/09/01 05:37:07;;;;;;;4.87;2.20;;;;;;;;;;5088259;28;20024;-66
2022/09/01 05:39:34;;;;;;;3.37;2.10;;;;;;;;;;5089200;28;21246;-66
2022/09/01 05:41:59;;;;;;;8.73;2.40;;;;;;;;;;5088613;28;20024;-66
2022/09/01 05:44:25;;;;;;;10.67;2.10;;;;;;;;;;5085160;28;20050;-66
2022/09/01 05:46:50;;;;;;;6.17;2.10;;;;;;;;;;5087672;28;20049;-66
2022/09/01 05:49:17;;;;;;;5.50;2.50;;;;;;;;;;5089141;28;20099;-66
2022/09/01 05:51:44;;;;;;;4.23;1.90;;;;;;;;;;5081588;28;20027;-66
2022/09/01 05:54:10;;;;;;;6.30;1.63;;;;;;;;;;5090347;28;20050;-66
2022/09/01 05:56:40;;;;;;;7.53;1.63;;;;;;;;;;5091799;28;20016;-66
2022/09/01 05:59:05;;;;;;;5.45;1.40;;;;;;;;;;5091006;28;20024;-66
2022/09/01 06:01:32;;;;;;;5.90;1.60;;;;;;;;;;5092352;28;20407;-66
2022/09/01 06:03:58;;;;;;;6.43;1.50;;;;;;;;;;5086657;28;20440;-66
2022/09/01 06:06:26;;;;;;;7.18;1.55;;;;;;;;;;5092061;28;20024;-66
2022/09/01 06:08:51;;;;;;;3.75;1.40;;;;;;;;;;5090209;28;20039;-66
2022/09/01 06:11:17;;;;;;;6.10;1.65;;;;;;;;;;5092384;28;20056;-66
2022/09/01 06:13:46;;;;;;;3.05;1.45;;;;;;;;;;5089791;28;20023;-66
2022/09/01 06:16:11;;;;;;;4.28;1.27;;;;;;;;;;5091840;28;20035;-66
2022/09/01 06:18:37;;;;;;;5.22;1.33;;;;;;;;;;5092025;28;20043;-67
2022/09/01 06:21:03;;;;;;;4.90;1.30;;;;;;;;;;5090499;28;20031;-67
2022/09/01 06:23:28;;;;;;;6.50;1.45;;;;;;;;;;5090696;28;20046;-67
2022/09/01 06:25:54;;;;;;;4.63;1.40;;;;;;;;;;5091541;28;20016;-67
2022/09/01 06:28:20;;;;;;;3.28;1.40;;;;;;;;;;5092187;28;20101;-68
2022/09/01 06:30:47;;;;;;;3.22;1.48;;;;;;;;;;5089900;28;20449;-67
2022/09/01 06:33:13;;;;;;;4.25;1.48;;;;;;;;;;5087533;28;20024;-67
2022/09/01 06:35:42;;;;;;;3.75;1.40;;;;;;;;;;5088872;28;20031;-67
2022/09/01 06:38:09;;;;;;;2.55;1.30;;;;;;;;;;5091899;28;20016;-68
2022/09/01 06:40:34;;;;;;;3.70;1.30;;;;;;;;;;5090722;28;20024;-67
2022/09/01 06:43:01;;;;;;;3.60;1.33;;;;;;;;;;5088667;28;20081;-68
2022/09/01 06:45:26;;;;;;;3.40;1.30;;;;;;;;;;5091284;28;20091;-68
2022/09/01 06:47:52;;;;;;;3.95;1.30;;;;;;;;;;5087409;28;20095;-67
2022/09/01 06:50:20;;;;;;;4.07;1.23;;;;;;;;;;5091581;28;20116;-68
2022/09/01 06:52:46;;;;;;;4.47;1.50;;;;;;;;;;5073425;28;20051;-67
2022/09/01 06:55:12;;;;;;;2.78;1.30;;;;;;;;;;5089018;28;20020;-68
2022/09/01 06:57:38;;;;;;;3.08;1.20;;;;;;;;;;5090792;28;20107;-68
2022/09/01 07:00:19;;;;;;;5.95;1.20;;;;;;;;;;5091113;28;20131;-68
2022/09/01 07:02:52;;;;;;;7.25;1.20;;;;;;;;;;5091076;28;20019;-68
2022/09/01 07:05:18;;;;;;;3.17;1.30;;;;;;;;;;5090517;28;20023;-68
2022/09/01 07:07:50;;;;;;;3.38;1.30;;;;;;;;;;5091246;28;20108;-68
2022/09/01 07:10:18;;;;;;;4.97;1.40;;;;;;;;;;5092072;28;20022;-65
2022/09/01 07:12:45;;;;;;;3.80;1.30;;;;;;;;;;5091625;28;20532;-66
2022/09/01 07:15:12;;;;;;;8.40;1.45;;;;;;;;;;5088987;28;20023;-65
2022/09/01 07:17:41;;;;;;;4.47;1.20;;;;;;;;;;5091281;28;20024;-67
2022/09/01 07:20:08;;;;;;;2.90;1.15;;;;;;;;;;5091035;28;20065;-65
2022/09/01 07:22:33;;;;;;;3.50;1.25;;;;;;;;;;5091363;28;20187;-66
2022/09/01 07:24:58;;;;;;;4.47;1.45;;;;;;;;;;5089002;28;20129;-65
2022/09/01 07:27:26;;;;;;;2.38;1.10;;;;;;;;;;5090562;28;20020;-65
2022/09/01 07:29:56;;;;;;;3.55;1.10;;;;;;;;;;5089389;28;20032;-65
2022/09/01 07:32:22;;;;;;;2.03;1.10;;;;;;;;;;5090992;28;20415;-66
2022/09/01 07:34:47;;;;;;;3.15;1.10;;;;;;;;;;5089266;28;20486;-65
2022/09/01 07:37:12;;;;;;;3.00;1.17;;;;;;;;;;5090414;28;20016;-65
2022/09/01 07:39:41;;;;;;;2.67;1.10;;;;;;;;;;5090516;28;20027;-65
2022/09/01 07:42:10;;;;;;;4.57;1.30;;;;;;;;;;5090563;28;20109;-65
2022/09/01 07:44:37;;;;;;;5.80;1.38;;;;;;;;;;5089873;28;20388;-65
2022/09/01 07:47:05;;;;;;;2.58;1.10;;;;;;;;;;5084876;28;20026;-65
2022/09/01 07:49:30;;;;;;;2.55;1.10;;;;;;;;;;5085297;28;20031;-65
2022/09/01 07:51:57;;;;;;;3.83;1.20;;;;;;;;;;5090338;28;20020;-64
2022/09/01 07:54:24;;;;;;;5.00;1.50;;;;;;;;;;5089832;28;20043;-65
2022/09/01 07:56:49;;;;;;;4.78;0.93;;;;;;;;;;5089833;28;20087;-68
2022/09/01 07:59:14;;;;;;;3.03;1.00;;;;;;;;;;5086963;28;20111;-66
2022/09/01 08:01:41;;;;;;;3.95;1.00;;;;;;;;;;5085485;28;20024;-66
2022/09/01 08:04:06;;;;;;;5.88;1.00;;;;;;;;;;5090140;28;20676;-66
2022/09/01 08:06:33;;;;;;;3.65;1.10;;;;;;;;;;5088423;28;20051;-66
2022/09/01 08:08:59;;;;;;;5.45;1.65;;;;;;;;;;5087277;28;20028;-66
2022/09/01 08:11:27;;;;;;;7.55;1.10;;;;;;;;;;5090475;28;20093;-66
2022/09/01 08:13:53;;;;;;;3.42;1.00;;;;;;;;;;5088589;28;20012;-69
2022/09/01 08:16:20;;;;;;;3.53;1.00;;;;;;;;;;5085931;28;20020;-66
2022/09/01 08:18:46;;;;;;;5.43;0.90;;;;;;;;;;5089261;28;20502;-66
2022/09/01 08:21:12;;;;;;;3.35;1.08;;;;;;;;;;5090034;28;20064;-68
2022/09/01 08:23:37;;;;;;;2.30;0.80;;;;;;;;;;5090092;28;20658;-66
2022/09/01 08:26:07;;;;;;;1.92;0.90;;;;;;;;;;5090293;28;20451;-66
2022/09/01 08:28:32;;;;;;;4.20;1.10;;;;;;;;;;5089164;28;20047;-66
2022/09/01 08:30:58;;;;;;;3.67;1.30;;;;;;;;;;5087659;28;20423;-69
2022/09/01 08:33:24;;;;;;;3.42;1.08;;;;;;;;;;5089641;28;20020;-66
2022/09/01 08:35:50;;;;;;;3.13;0.90;;;;;;;;;;5090119;28;21343;-66
2022/09/01 08:38:15;;;;;;;2.35;0.82;;;;;;;;;;5089836;28;20051;-67
2022/09/01 08:40:42;;;;;;;1.73;0.80;;;;;;;;;;5084711;28;20357;-66
2022/09/01 08:43:15;;;;;;;2.58;0.70;;;;;;;;;;5089862;28;20035;-68
2022/09/01 08:45:49;;;;;;;4.20;1.00;;;;;;;;;;5085566;28;20105;-66
2022/09/01 08:48:24;;;;;;;2.20;0.80;;;;;;;;;;5084691;28;20039;-67
2022/09/01 08:50:54;;;;;;;6.50;0.90;;;;;;;;;;5089852;28;20592;-66
2022/09/01 08:53:35;;;;;;;2.13;0.73;;;;;;;;;;5089463;28;20020;-67
2022/09/01 08:56:01;;;;;;;4.20;0.90;;;;;;;;;;5089584;28;20109;-66
2022/09/01 08:58:29;;;;;;;2.47;0.90;;;;;;;;;;5086564;28;20055;-66
2022/09/01 09:00:56;;;;;;;0.82;0.60;;;;;;;;;;5086184;28;20034;-68
2022/09/01 09:03:33;;;;;;;3.15;0.75;;;;;;;;;;5090417;28;20020;-67
2022/09/01 09:06:06;;;;;;;2.10;0.60;;;;;;;;;;5093692;28;20181;-67
2022/09/01 09:08:31;;;;;;;1.88;0.80;;;;;;;;;;5092823;28;20491;-67
2022/09/01 09:10:58;;;;;;;2.63;0.70;;;;;;;;;;5092414;28;20020;-67
2022/09/01 09:13:42;;;;;;;4.20;0.90;;;;;;;;;;5092877;28;20635;-66
2022/09/01 09:16:13;;;;;;;2.17;0.75;;;;;;;;;;5090858;28;20024;-68
2022/09/01 09:18:38;;;;;;;;;;;;;;;;;;5089063;28;20165;-66
2022/09/01 09:21:15;;;;;;;2.42;0.70;;;;;;;;;;5092451;28;20006;-67
2022/09/01 09:23:42;;;;;;;1.63;0.63;;;;;;;;;;5092497;28;20035;-69
2022/09/01 09:26:08;;;;;;;6.15;0.90;;;;;;;;;;5092908;28;20460;-67
2022/09/01 09:28:33;;;;;;;4.18;0.80;;;;;;;;;;5091513;28;20031;-66
2022/09/01 09:31:17;;;;;;;2.80;0.70;;;;;;;;;;5092743;28;20012;-66
2022/09/01 09:33:42;;;;;;;3.03;0.73;;;;;;;;;;5090784;28;20043;-66
2022/09/01 09:36:16;;;;;;;2.25;0.57;;;;;;;;;;5092879;28;20023;-66
2022/09/01 09:38:41;;;;;;;2.15;0.70;;;;;;;;;;5092643;28;20464;-69
2022/09/01 09:41:13;;;;;;;2.00;0.68;;;;;;;;;;5089894;28;20027;-66
2022/09/01 09:43:45;;;;;;;1.08;0.50;;;;;;;;;;5088123;28;20023;-69
2022/09/01 09:46:21;;;;;;;2.55;0.60;;;;;;;;;;5087435;28;20035;-67
2022/09/01 09:48:47;;;;;;;3.38;1.08;;;;;;;;;;5092552;28;20468;-67
2022/09/01 09:51:18;;;;;;;2.28;0.60;;;;;;;;;;5089365;28;20035;-68
2022/09/01 09:53:43;;;;;;;1.20;0.52;;;;;;;;;;5092009;28;20122;-66
2022/09/01 09:56:17;;;;;;;1.05;0.52;;;;;;;;;;5091520;28;20110;-68
2022/09/01 09:58:45;;;;;;;1.23;0.50;;;;;;;;;;5091679;28;20035;-68
2022/09/01 10:01:14;;;;;;;1.88;0.57;;;;;;;;;;5092653;28;20027;-68
2022/09/01 10:03:47;;;;;;;3.33;0.70;;;;;;;;;;5092266;28;20595;-68
2022/09/01 10:06:33;;;;;;;1.73;0.55;;;;;;;;;;5091466;28;20479;-67
2022/09/01 10:09:00;;;;;;;3.83;0.77;;;;;;;;;;5084789;28;20035;-67
2022/09/01 10:11:27;;;;;;;1.90;0.60;;;;;;;;;;5089544;28;20024;-68
2022/09/01 10:13:53;;;;;;;4.72;0.88;;;;;;;;;;5072402;28;20024;-67
2022/09/01 10:16:24;;;;;;;1.65;0.55;;;;;;;;;;5089608;28;20031;-67
2022/09/01 10:18:50;;;;;;;2.67;0.68;;;;;;;;;;5092236;28;20464;-69
2022/09/01 10:21:21;;;;;;;2.17;0.70;;;;;;;;;;5088741;28;20392;-67
2022/09/01 10:23:46;;;;;;;7.03;0.80;;;;;;;;;;5092050;28;20024;-66
2022/09/01 10:26:17;;;;;;;4.28;0.60;;;;;;;;;;5092071;28;20031;-68
2022/09/01 10:28:51;;;;;;;2.15;0.40;;;;;;;;;;5089783;28;20036;-66
2022/09/01 10:31:17;;;;;;;1.10;0.57;;;;;;;;;;5092065;28;20069;-67
2022/09/01 10:33:42;;;;;;;1.08;0.40;;;;;;;;;;5092274;28;20023;-67
2022/09/01 10:36:08;;;;;;;3.15;0.60;;;;;;;;;;5092092;28;20027;-66
2022/09/01 10:38:34;;;;;;;3.35;0.60;;;;;;;;;;5090145;28;20019;-70
2022/09/01 10:41:09;;;;;;;3.35;0.60;;;;;;;;;;5090039;28;20063;-67
2022/09/01 10:43:42;;;;;;;2.33;0.65;;;;;;;;;;5089721;28;20035;-67
2022/09/01 10:46:28;;;;;;;3.15;0.57;;;;;;;;;;5090517;28;20162;-68
2022/09/01 10:48:54;;;;;;;2.88;0.60;;;;;;;;;;5091973;28;20388;-67
2022/09/01 10:51:19;;;;;;;2.03;0.60;;;;;;;;;;5088092;28;20012;-66
2022/09/01 10:53:48;;;;;;;2.28;0.60;;;;;;;;;;5089540;28;20538;-67
2022/09/01 10:56:16;;;;;;;2.50;0.50;;;;;;;;;;5091446;28;20116;-66
2022/09/01 10:59:00;;;;;;;1.88;0.50;;;;;;;;;;5092322;28;20067;-66
2022/09/01 11:01:44;;;;;;;1.27;0.50;;;;;;;;;;5094397;28;20028;-66
2022/09/01 11:04:09;;;;;;;2.45;0.75;;;;;;;;;;5090561;28;20022;-65
2022/09/01 11:06:41;;;;;;;6.72;0.60;;;;;;;;;;5087468;28;20024;-66
2022/09/01 11:09:06;;;;;;;;;;;;;;;;;;5093343;28;20021;-67
2022/09/01 11:11:44;;;;;;;3.07;0.50;;;;;;;;;;5088013;28;20273;-68
2022/09/01 11:14:20;;;;;;;2.90;0.60;;;;;;;;;;5091061;28;20364;-68
2022/09/01 11:17:04;;;;;;;2.38;0.55;;;;;;;;;;5072015;28;20012;-66
2022/09/01 11:19:38;;;;;;;2.63;0.60;;;;;;;;;;5085526;28;20016;-69
2022/09/01 11:22:06;;;;;;;2.33;0.70;;;;;;;;;;5090860;28;20073;-67
2022/09/01 11:24:37;;;;;;;4.07;0.60;;;;;;;;;;5090552;28;20031;-66
2022/09/01 11:27:03;;;;;;;1.90;0.70;;;;;;;;;;5089049;28;20016;-66
2022/09/01 11:29:47;;;;;;;2.50;0.60;;;;;;;;;;5087064;28;20027;-66
2022/09/01 11:32:13;;;;;;;1.65;0.50;;;;;;;;;;5090372;28;20050;-65
2022/09/01 11:34:43;;;;;;;2.03;0.50;;;;;;;;;;5086587;28;20024;-65
2022/09/01 11:37:13;;;;;;;1.75;0.60;;;;;;;;;;5088928;28;20024;-68
2022/09/01 11:39:41;;;;;;;2.40;0.70;;;;;;;;;;5090831;28;20078;-65
2022/09/01 11:42:09;;;;;;;2.95;0.50;;;;;;;;;;5088812;28;20059;-66
2022/09/01 11:44:35;;;;;;;1.40;0.57;;;;;;;;;;5090762;28;20023;-66
2022/09/01 11:47:05;;;;;;;1.77;0.50;;;;;;;;;;5090726;28;20020;-67
2022/09/01 11:49:32;;;;;;;2.03;1.02;;;;;;;;;;5087816;28;20039;-67
2022/09/01 11:51:59;;;;;;;0.80;0.50;;;;;;;;;;5090550;28;20027;-66
2022/09/01 11:54:24;;;;;;;2.80;0.60;;;;;;;;;;5087481;28;20134;-66
2022/09/01 11:56:49;;;;;;;3.33;0.60;;;;;;;;;;5088749;28;20150;-66
2022/09/01 11:59:29;;;;;;;0.85;0.50;;;;;;;;;;5090220;28;20016;-67
2022/09/01 12:01:57;;;;;;;1.27;0.50;;;;;;;;;;5090262;28;20490;-66
2022/09/01 12:04:26;;;;;;;2.45;0.60;;;;;;;;;;5088661;28;20031;-67
2022/09/01 12:07:02;;;;;;;1.08;0.50;;;;;;;;;;5090180;28;20016;-66
2022/09/01 12:09:32;;;;;;;1.60;0.55;;;;;;;;;;5090221;28;20019;-66
2022/09/01 12:11:58;;;;;;;1.02;0.50;;;;;;;;;;5088327;28;20082;-67
2022/09/01 12:14:23;;;;;;;1.90;0.75;;;;;;;;;;5089919;28;20077;-67
2022/09/01 12:16:56;;;;;;;1.80;0.50;;;;;;;;;;5090124;28;20016;-67
2022/09/01 12:19:26;;;;;;;1.98;0.43;;;;;;;;;;5090074;28;20023;-67
2022/09/01 12:21:57;;;;;;;1.88;0.50;;;;;;;;;;5085923;28;20016;-67
2022/09/01 12:24:23;;;;;;;3.20;0.50;;;;;;;;;;5090105;28;20022;-67
2022/09/01 12:26:50;;;;;;;3.30;0.60;;;;;;;;;;5089710;28;20433;-66
2022/09/01 12:29:16;;;;;;;4.53;0.52;;;;;;;;;;5088833;28;20077;-66
2022/09/01 12:31:42;;;;;;;1.00;0.40;;;;;;;;;;5089566;28;20024;-67
2022/09/01 12:34:26;;;;;;;2.03;0.40;;;;;;;;;;5089771;28;20349;-67
2022/09/01 12:37:04;;;;;;;0.98;0.40;;;;;;;;;;5088732;28;20496;-68
2022/09/01 12:39:33;;;;;;;2.97;0.50;;;;;;;;;;5089176;28;20380;-67
2022/09/01 12:42:04;;;;;;;1.60;0.60;;;;;;;;;;5088519;28;20020;-67
2022/09/01 12:44:33;;;;;;;2.70;0.52;;;;;;;;;;5086946;28;20024;-66
2022/09/01 12:47:09;;;;;;;1.80;0.30;;;;;;;;;;5085587;28;20421;-67
2022/09/01 12:49:41;;;;;;;1.75;0.50;;;;;;;;;;5089333;28;20384;-67
2022/09/01 12:52:09;;;;;;;2.15;0.40;;;;;;;;;;5088554;28;20028;-67
2022/09/01 12:54:35;;;;;;;3.50;0.50;;;;;;;;;;5088956;28;20027;-67
2022/09/01 12:57:01;;;;;;;1.30;0.60;;;;;;;;;;5089199;28;20024;-68
2022/09/01 12:59:26;;;;;;;4.18;0.52;;;;;;;;;;5088800;28;20496;-70
2022/09/01 13:01:51;;;;;;;2.35;0.50;;;;;;;;;;5090289;28;20014;-68
2022/09/01 13:04:19;;;;;;;1.55;0.57;;;;;;;;;;5087600;28;20028;-68
2022/09/01 13:06:45;;;;;;;1.52;0.50;;;;;;;;;;5089775;28;20468;-67
2022/09/01 13:09:10;;;;;;;1.55;0.40;;;;;;;;;;5089491;28;20027;-67
2022/09/01 13:11:35;;;;;;;3.15;0.50;;;;;;;;;;5089408;28;20429;-67
2022/09/01 13:14:00;;;;;;;3.30;0.68;;;;;;;;;;5087433;28;20042;-67
2022/09/01 13:16:26;;;;;;;1.15;0.45;;;;;;;;;;5089288;28;20018;-68
2022/09/01 13:18:51;;;;;;;2.33;0.60;;;;;;;;;;5089174;28;20055;-67
2022/09/01 13:21:16;;;;;;;2.95;0.57;;;;;;;;;;5089558;28;20026;-67
2022/09/01 13:23:42;;;;;;;1.67;0.60;;;;;;;;;;5089457;28;20026;-67
2022/09/01 13:26:07;;;;;;;4.22;0.73;;;;;;;;;;5087708;28;20111;-68
2022/09/01 13:28:32;;;;;;;2.35;0.52;;;;;;;;;;5084424;28;20021;-66
2022/09/01 13:31:05;;;;;;;1.60;0.40;;;;;;;;;;5089546;28;20077;-67
2022/09/01 13:33:31;;;;;;;1.23;0.50;;;;;;;;;;5089183;28;20027;-67
2022/09/01 13:35:57;;;;;;;3.33;0.52;;;;;;;;;;5087951;28;20073;-67
2022/09/01 13:38:22;;;;;;;2.08;0.50;;;;;;;;;;5087760;28;20028;-66
2022/09/01 13:40:48;;;;;;;2.30;0.70;;;;;;;;;;5088632;28;20096;-66
2022/09/01 13:43:15;;;;;;;1.35;0.50;;;;;;;;;;5085741;28;20058;-67
2022/09/01 13:45:40;;;;;;;1.23;0.60;;;;;;;;;;5087463;28;20031;-66
2022/09/01 13:48:06;;;;;;;3.47;0.70;;;;;;;;;;5089018;28;20012;-65
2022/09/01 13:50:32;;;;;;;1.35;0.60;;;;;;;;;;5091838;28;20105;-66
2022/09/01 13:52:57;;;;;;;2.45;0.75;;;;;;;;;;5092609;28;20654;-65
2022/09/01 13:55:27;;;;;;;1.45;0.60;;;;;;;;;;5089270;28;20082;-67
2022/09/01 13:57:53;;;;;;;1.20;0.43;;;;;;;;;;5093108;28;20035;-64
2022/09/01 14:00:23;;;;;;;2.05;0.50;;;;;;;;;;5091341;28;20463;-65
2022/09/01 14:02:49;;;;;;;1.23;0.60;;;;;;;;;;5091302;28;20032;-65
2022/09/01 14:05:33;;;;;;;1.35;0.50;;;;;;;;;;5093781;28;20020;-66
2022/09/01 14:07:59;;;;;;;1.08;0.57;;;;;;;;;;5093838;28;20020;-66
2022/09/01 14:10:25;;;;;;;1.33;0.47;;;;;;;;;;5092311;28;20036;-66
2022/09/01 14:12:50;;;;;;;3.00;0.60;;;;;;;;;;5094077;28;20020;-66
2022/09/01 14:15:17;;;;;;;1.30;0.45;;;;;;;;;;5092276;28;20028;-66
2022/09/01 14:17:42;;;;;;;1.45;0.50;;;;;;;;;;5093761;28;20020;-65
2022/09/01 14:20:11;;;;;;;2.97;0.55;;;;;;;;;;5092471;28;20546;-66
2022/09/01 14:22:37;;;;;;;0.77;0.40;;;;;;;;;;5093595;28;20034;-65
2022/09/01 14:25:02;;;;;;;2.28;0.55;;;;;;;;;;5093647;28;20460;-65
2022/09/01 14:27:27;;;;;;;2.55;0.50;;;;;;;;;;5093702;28;20386;-65
2022/09/01 14:29:52;;;;;;;0.80;0.40;;;;;;;;;;5091959;28;20396;-65
2022/09/01 14:32:21;;;;;;;1.55;0.50;;;;;;;;;;5094213;28;20086;-65
2022/09/01 14:34:47;;;;;;;0.52;0.40;;;;;;;;;;5093442;28;20066;-66
2022/09/01 14:37:13;;;;;;;1.83;0.60;;;;;;;;;;5091290;28;20480;-65
2022/09/01 14:39:38;;;;;;;3.75;0.60;;;;;;;;;;5093474;28;20556;-65
2022/09/01 14:42:06;;;;;;;1.90;0.50;;;;;;;;;;5093445;28;20036;-65
2022/09/01 14:44:35;;;;;;;4.13;0.63;;;;;;;;;;5091628;28;20121;-66
2022/09/01 14:47:00;;;;;;;6.43;0.70;;;;;;;;;;5093551;28;20083;-66
2022/09/01 14:49:31;;;;;;;1.95;0.80;;;;;;;;;;5104222;28;20055;-66